テルアビブ / ベン・グリオン の空港の天気 - METARとTAF

ベン・グリオン国際空港(テルアビブ) ( LLBG / TLV ) - イスラエル ロード / テルアビブ
飛行場実況気象(Metar)
観測時間08/11 08:50 IDT (08/11 05:50 UTC)
風向・風速南南西 4m/s
視程10km以上
天気現象
全天の4割程度の雲 雲底高度 760m
気温28℃
湿度66%
気圧1009hPa
METARLLBG 110550Z 21008KT 9999 SCT025 28/21 Q1009 NOSIG
過去の天気等 Google飛行場航空写真 Wunderground天気予報

過去48時間のMETAR

飛行場予報(TAF)
発表時間: 8/11 08:12 IDT (8/11 05:12 UTC)
予報対象時間: 11日9時 IDT ~ 12日9時 IDT
風向・風速南南西 4m/s
視程10km以上
全天の4割程度の雲 雲底高度 760m
11日9時 IDT ~ 11日11時 IDT に一時的に
天気現象弱い雨
全天の8割程度の雲 雲底高度 760m
11日11時 IDT から
風向・風速西 7m/s
視程10km以上
少しの雲 雲底高度 910m
11日18時 IDT ~ 11日20時 IDT に徐々に
風向・風速西南西 3m/s
全天の4割程度の雲 雲底高度 760m
12日3時 IDT ~ 12日9時 IDT に一時的に
風向・風速南南東 3m/s
全天の8割程度の雲 雲底高度 760m
TAF LLBG 110512Z 1106/1206 21007KT 9999 SCT025
TEMPO 1106/1108 -RA BKN025
FM110800 26013KT 9999 FEW030
BECMG 1115/1117 25005KT SCT025
TEMPO 1200/1206 16005KT BKN025 TX30/1112Z TN24/1203Z